Time;durP1;ratioP1;P1;durP2;ratioP2;P2;SDS_P1;SDS_P2;PMS_P1;PMS_P2;Temp;Humidity;BMP_temperature;BMP_pressure;BME280_temperature;BME280_humidity;BME280_pressure;Samples;Min_cycle;Max_cycle;Signal;HPM_P1;HPM_P2
2023/03/22 00:00:01;;;;;;;;;;;;;;;8.64;100.00;100958.41;5011268;28;20522;-78
2023/03/22 00:02:26;;;;;;;;;;;;;;;8.66;100.00;100964.50;5012342;28;19920;-79
2023/03/22 00:04:51;;;;;;;;;;;;;;;8.65;100.00;100952.09;5013206;28;20401;-78
2023/03/22 00:07:17;;;;;;;;;;;;;;;8.53;100.00;100956.44;5029935;28;19968;-78
2023/03/22 00:09:42;;;;;;;;;;;;;;;8.41;100.00;100950.06;5029529;28;19921;-78
2023/03/22 00:12:07;;;;;;;;;;;;;;;8.23;100.00;100956.66;5011555;28;19925;-78
2023/03/22 00:14:32;;;;;;;;;;;;;;;8.21;100.00;100950.56;5011788;28;20054;-78
2023/03/22 00:16:58;;;;;;;;;;;;;;;8.24;100.00;100950.34;5028494;28;19920;-78
2023/03/22 00:19:23;;;;;;;;;;;;;;;8.32;100.00;100941.81;5030498;28;19920;-78
2023/03/22 00:21:50;;;;;;;;;;;;;;;8.27;100.00;100942.13;5032651;28;19920;-78
2023/03/22 00:24:15;;;;;;;;;;;;;;;8.13;100.00;100940.38;5029882;28;20065;-78
2023/03/22 00:26:40;;;;;;;;;;;;;;;8.09;100.00;100937.03;5027143;28;20329;-78
2023/03/22 00:29:05;;;;;;;;;;;;;;;8.03;100.00;100931.22;5027490;28;20347;-78
2023/03/22 00:31:31;;;;;;;;;;;;;;;8.15;100.00;100930.44;5012553;28;19929;-78
2023/03/22 00:33:56;;;;;;;;;;;;;;;8.14;100.00;100922.50;4994713;28;20422;-78
2023/03/22 00:36:21;;;;;;;;;;;;;;;8.07;100.00;100922.91;5026719;28;20217;-78
2023/03/22 00:38:46;;;;;;;;;;;;;;;8.11;100.00;100924.41;5009402;28;19964;-78
2023/03/22 00:41:15;;;;;;;;;;;;;;;7.99;100.00;100916.34;5030320;28;20335;-78
2023/03/22 00:43:41;;;;;;;;;;;;;;;8.18;100.00;100913.31;5030081;28;19966;-78
2023/03/22 00:46:06;;;;;;;;;;;;;;;8.08;100.00;100905.88;5008608;28;19925;-78
2023/03/22 00:48:31;;;;;;;;;;;;;;;8.05;100.00;100906.13;5010868;28;20386;-77
2023/03/22 00:50:56;;;;;;;;;;;;;;;8.14;100.00;100896.63;5008688;28;20256;-78
2023/03/22 00:53:22;;;;;;;;;;;;;;;8.04;100.00;100893.72;5031605;28;20383;-77
2023/03/22 00:55:47;;;;;;;;;;;;;;;8.02;100.00;100898.28;5032601;28;20371;-78
2023/03/22 00:58:12;;;;;;;;;;;;;;;8.28;100.00;100886.78;5033244;28;20489;-77
2023/03/22 01:00:37;;;;;;;;;;;;;;;8.25;100.00;100882.53;5011117;28;20278;-78
2023/03/22 01:03:03;;;;;;;;;;;;;;;8.20;100.00;100882.84;5009271;28;19971;-78
2023/03/22 01:05:32;;;;;;;;;;;;;;;8.13;100.00;100878.84;5009504;28;20405;-78
2023/03/22 01:08:07;;;;;;;;;;;;;;;8.40;100.00;100880.63;5030352;28;20051;-78
2023/03/22 01:10:32;;;;;;;;;;;;;;;8.25;100.00;100871.81;5014519;28;19929;-78
2023/03/22 01:12:57;;;;;;;;;;;;;;;8.13;100.00;100875.31;5014927;28;20396;-78
2023/03/22 01:15:22;;;;;;;;;;;;;;;8.20;100.00;100873.94;4998181;28;19924;-78
2023/03/22 01:17:48;;;;;;;;;;;;;;;8.24;100.00;100868.28;5031282;28;20292;-78
2023/03/22 01:20:13;;;;;;;;;;;;;;;8.25;100.00;100861.97;5030101;28;19931;-79
2023/03/22 01:22:38;;;;;;;;;;;;;;;8.17;100.00;100856.31;5011276;28;19921;-78
2023/03/22 01:25:04;;;;;;;;;;;;;;;8.22;100.00;100864.84;4997792;28;19921;-78
2023/03/22 01:27:30;;;;;;;;;;;;;;;8.29;100.00;100848.38;5030691;28;19924;-77
2023/03/22 01:29:55;;;;;;;;;;;;;;;8.29;100.00;100851.06;5016361;28;19963;-78
2023/03/22 01:32:20;;;;;;;;;;;;;;;8.23;100.00;100841.66;5031900;28;19925;-79
2023/03/22 01:34:45;;;;;;;;;;;;;;;8.29;100.00;100833.22;4997750;28;19921;-77
2023/03/22 01:37:11;;;;;;;;;;;;;;;8.30;100.00;100831.38;5030134;28;19932;-77
2023/03/22 01:39:36;;;;;;;;;;;;;;;8.16;100.00;100822.50;5033383;28;19921;-77
2023/03/22 01:42:02;;;;;;;;;;;;;;;8.17;100.00;100821.53;5014961;28;19929;-78
2023/03/22 01:44:27;;;;;;;;;;;;;;;8.28;100.00;100811.91;5026590;28;19934;-78
2023/03/22 01:46:53;;;;;;;;;;;;;;;8.36;100.00;100797.03;5011586;28;19947;-77
2023/03/22 01:49:28;;;;;;;;;;;;;;;8.31;100.00;100792.97;5029503;28;20318;-78
2023/03/22 01:51:55;;;;;;;;;;;;;;;8.38;100.00;100791.59;5011734;28;19956;-78
2023/03/22 01:54:25;;;;;;;;;;;;;;;8.30;100.00;100784.09;5013903;28;20319;-77
2023/03/22 01:56:50;;;;;;;;;;;;;;;8.56;100.00;100784.13;5010712;28;19948;-78
2023/03/22 01:59:15;;;;;;;;;;;;;;;8.44;100.00;100783.13;5026869;28;19928;-77
2023/03/22 02:01:41;;;;;;;;;;;;;;;8.56;100.00;100778.78;5026620;28;19925;-77
2023/03/22 02:04:11;;;;;;;;;;;;;;;8.53;100.00;100769.13;5013235;28;19967;-78
2023/03/22 02:06:37;;;;;;;;;;;;;;;8.61;100.00;100771.25;5026891;28;20497;-78
2023/03/22 02:09:11;;;;;;;;;;;;;;;8.57;100.00;100763.56;5028077;28;20055;-76
2023/03/22 02:11:40;;;;;;;;;;;;;;;8.67;100.00;100762.81;5015383;28;20422;-78
2023/03/22 02:14:24;;;;;;;;;;;;;;;8.80;100.00;100768.13;5012777;28;19925;-77
2023/03/22 02:16:49;;;;;;;;;;;;;;;8.76;100.00;100758.59;5011280;28;19998;-76
2023/03/22 02:19:28;;;;;;;;;;;;;;;8.95;100.00;100755.47;5029640;28;19921;-77
2023/03/22 02:22:13;;;;;;;;;;;;;;;9.05;100.00;100741.41;5024812;28;19960;-77
2023/03/22 02:24:58;;;;;;;;;;;;;;;8.85;100.00;100747.25;5028326;28;20371;-77
2023/03/22 02:27:31;;;;;;;;;;;;;;;8.77;100.00;100749.59;5018680;28;19925;-78
2023/03/22 02:30:05;;;;;;;;;;;;;;;8.88;100.00;100745.31;5013940;28;20382;-77
2023/03/22 02:32:51;;;;;;;;;;;;;;;8.78;100.00;100745.97;5034772;28;19998;-77
2023/03/22 02:35:16;;;;;;;;;;;;;;;8.90;100.00;100746.06;4998360;28;19928;-76
2023/03/22 02:37:47;;;;;;;;;;;;;;;9.06;100.00;100743.97;5037242;28;19976;-77
2023/03/22 02:40:18;;;;;;;;;;;;;;;9.29;100.00;100741.41;5027980;28;20003;-77
2023/03/22 02:42:43;;;;;;;;;;;;;;;9.13;100.00;100739.88;5036068;28;19920;-75
2023/03/22 02:45:13;;;;;;;;;;;;;;;9.36;100.00;100731.97;5032844;28;19921;-77
2023/03/22 02:47:42;;;;;;;;;;;;;;;9.09;100.00;100734.88;5005484;28;19925;-76
2023/03/22 02:50:10;;;;;;;;;;;;;;;8.96;100.00;100737.59;5008213;28;19925;-77
2023/03/22 02:52:41;;;;;;;;;;;;;;;9.03;100.00;100735.31;5023431;28;19966;-76
2023/03/22 02:55:06;;;;;;;;;;;;;;;9.10;100.00;100723.19;5028673;28;20029;-76
2023/03/22 02:57:43;;;;;;;;;;;;;;;9.29;100.00;100720.84;5028619;28;20882;-77
2023/03/22 03:00:11;;;;;;;;;;;;;;;9.33;100.00;100709.91;5023552;28;20377;-78
2023/03/22 03:02:38;;;;;;;;;;;;;;;9.22;100.00;100710.72;5010152;28;20028;-76
2023/03/22 03:05:03;;;;;;;;;;;;;;;9.32;100.00;100714.41;5011458;28;20543;-78
2023/03/22 03:07:28;;;;;;;;;;;;;;;9.28;100.00;100718.28;5009880;28;19929;-78
2023/03/22 03:09:53;;;;;;;;;;;;;;;9.44;100.00;100708.13;5010742;28;21989;-77
2023/03/22 03:12:20;;;;;;;;;;;;;;;9.57;100.00;100694.66;5010820;28;20393;-76
2023/03/22 03:14:45;;;;;;;;;;;;;;;9.76;100.00;100695.94;5010975;28;19928;-77
2023/03/22 03:17:16;;;;;;;;;;;;;;;9.49;100.00;100709.63;5011916;28;19924;-79
2023/03/22 03:20:00;;;;;;;;;;;;;;;9.53;100.00;100711.94;5025488;28;19928;-79
2023/03/22 03:22:43;;;;;;;;;;;;;;;9.46;100.00;100705.31;5028794;28;19982;-77
2023/03/22 03:25:13;;;;;;;;;;;;;;;9.51;100.00;100696.97;5010647;28;19929;-80
2023/03/22 03:28:02;;;;;;;;;;;;;;;9.69;100.00;100678.59;5008795;28;19935;-78
2023/03/22 03:30:32;;;;;;;;;;;;;;;9.32;100.00;100698.31;5013832;28;20100;-77
2023/03/22 03:33:02;;;;;;;;;;;;;;;9.40;100.00;100703.97;5012520;28;19929;-79
2023/03/22 03:35:31;;;;;;;;;;;;;;;9.34;100.00;100703.59;4996954;28;20007;-77
2023/03/22 03:37:56;;;;;;;;;;;;;;;9.53;100.00;100695.03;5015834;28;20028;-79
2023/03/22 03:40:30;;;;;;;;;;;;;;;9.51;100.00;100696.97;5008998;28;19921;-79
2023/03/22 03:42:55;;;;;;;;;;;;;;;9.50;100.00;100693.41;5011560;28;19920;-77
2023/03/22 03:45:21;;;;;;;;;;;;;;;9.47;100.00;100698.16;5010205;28;20260;-79
2023/03/22 03:47:46;;;;;;;;;;;;;;;9.26;100.00;100693.44;5010198;28;20011;-77
2023/03/22 03:50:11;;;;;;;;;;;;;;;9.53;100.00;100705.75;5025283;28;20312;-76
2023/03/22 03:52:37;;;;;;;;;;;;;;;9.33;100.00;100700.03;5006965;28;19924;-77
2023/03/22 03:55:02;;;;;;;;;;;;;;;9.44;100.00;100694.72;5011755;28;19983;-77
2023/03/22 03:57:27;;;;;;;;;;;;;;;9.33;100.00;100699.19;5027875;28;19925;-77
2023/03/22 03:59:52;;;;;;;;;;;;;;;9.40;100.00;100693.25;4998219;28;20382;-78
2023/03/22 04:02:18;;;;;;;;;;;;;;;9.56;100.00;100694.75;5024527;28;20431;-77
2023/03/22 04:04:43;;;;;;;;;;;;;;;9.37;100.00;100698.00;5010205;28;20119;-77
2023/03/22 04:07:08;;;;;;;;;;;;;;;9.29;100.00;100701.22;5008829;28;19967;-76
2023/03/22 04:09:35;;;;;;;;;;;;;;;9.43;100.00;100700.19;5025587;28;19917;-76
2023/03/22 04:12:00;;;;;;;;;;;;;;;9.77;100.00;100702.16;5024947;28;20062;-77
2023/03/22 04:14:26;;;;;;;;;;;;;;;9.26;100.00;100712.19;5026212;28;20018;-78
2023/03/22 04:16:51;;;;;;;;;;;;;;;9.34;100.00;100695.53;5027864;28;19920;-78
2023/03/22 04:19:16;;;;;;;;;;;;;;;9.17;100.00;100681.56;5022110;28;19928;-76
2023/03/22 04:21:41;;;;;;;;;;;;;;;9.24;100.00;100685.50;5024364;28;19948;-79
2023/03/22 04:24:07;;;;;;;;;;;;;;;9.14;100.00;100676.44;5028259;28;19932;-78
2023/03/22 04:26:32;;;;;;;;;;;;;;;9.23;100.00;100682.97;5011827;28;19958;-76
2023/03/22 04:28:58;;;;;;;;;;;;;;;9.23;100.00;100672.25;5024837;28;19968;-76
2023/03/22 04:31:23;;;;;;;;;;;;;;;9.15;100.00;100668.31;5008035;28;19924;-78
2023/03/22 04:33:53;;;;;;;;;;;;;;;9.19;100.00;100684.16;5025212;28;19963;-77
2023/03/22 04:36:19;;;;;;;;;;;;;;;9.27;100.00;100676.41;5027639;28;19955;-77
2023/03/22 04:38:44;;;;;;;;;;;;;;;9.04;100.00;100673.59;5010126;28;19921;-76
2023/03/22 04:41:10;;;;;;;;;;;;;;;8.89;100.00;100683.59;5008645;28;19963;-77
2023/03/22 04:43:38;;;;;;;;;;;;;;;8.95;100.00;100676.97;4989090;28;19928;-78
2023/03/22 04:46:03;;;;;;;;;;;;;;;8.81;100.00;100686.00;5027606;28;19917;-76
2023/03/22 04:48:28;;;;;;;;;;;;;;;8.73;100.00;100675.00;5005231;28;19948;-77
2023/03/22 04:50:54;;;;;;;;;;;;;;;8.64;100.00;100669.34;5009202;28;19975;-77
2023/03/22 04:53:26;;;;;;;;;;;;;;;8.80;100.00;100669.06;5009498;28;19971;-77
2023/03/22 04:55:57;;;;;;;;;;;;;;;8.89;100.00;100658.66;5026477;28;19921;-76
2023/03/22 04:58:25;;;;;;;;;;;;;;;8.81;100.00;100662.75;5026663;28;19921;-77
2023/03/22 05:00:54;;;;;;;;;;;;;;;8.93;100.00;100662.84;5025846;28;19967;-78
2023/03/22 05:03:20;;;;;;;;;;;;;;;8.79;100.00;100672.72;5026890;28;20418;-77
2023/03/22 05:06:05;;;;;;;;;;;;;;;8.70;100.00;100670.72;4994349;28;20062;-77
2023/03/22 05:08:31;;;;;;;;;;;;;;;8.87;100.00;100655.25;5009239;28;19924;-77
2023/03/22 05:10:57;;;;;;;;;;;;;;;8.81;100.00;100668.13;5012757;28;20267;-78
2023/03/22 05:13:22;;;;;;;;;;;;;;;8.90;100.00;100660.38;5014366;28;19921;-78
2023/03/22 05:15:48;;;;;;;;;;;;;;;8.97;100.00;100670.53;5024773;28;19972;-77
2023/03/22 05:18:25;;;;;;;;;;;;;;;9.17;100.00;100667.34;5014201;28;19982;-77
2023/03/22 05:20:52;;;;;;;;;;;;;;;9.00;100.00;100656.06;4993714;28;19952;-78
2023/03/22 05:23:18;;;;;;;;;;;;;;;9.10;100.00;100656.22;5011859;28;19921;-77
2023/03/22 05:25:43;;;;;;;;;;;;;;;8.85;100.00;100653.53;5011517;28;19921;-77
2023/03/22 05:28:09;;;;;;;;;;;;;;;8.82;100.00;100656.44;5013614;28;19928;-77
2023/03/22 05:30:34;;;;;;;;;;;;;;;9.06;100.00;100652.91;5031663;28;19921;-77
2023/03/22 05:33:02;;;;;;;;;;;;;;;8.95;100.00;100660.91;5018337;28;20484;-77
2023/03/22 05:35:27;;;;;;;;;;;;;;;8.76;100.00;100648.84;5019284;28;20354;-80
2023/03/22 05:37:53;;;;;;;;;;;;;;;8.74;100.00;100663.31;5016466;28;20389;-79
2023/03/22 05:40:18;;;;;;;;;;;;;;;8.96;100.00;100654.59;5034778;28;19962;-77
2023/03/22 05:42:43;;;;;;;;;;;;;;;8.85;100.00;100647.34;5036711;28;19927;-77
2023/03/22 05:45:09;;;;;;;;;;;;;;;8.91;100.00;100670.97;5016957;28;19971;-78
2023/03/22 05:47:35;;;;;;;;;;;;;;;9.13;100.00;100650.66;5035458;28;19956;-77
2023/03/22 05:50:01;;;;;;;;;;;;;;;8.93;100.00;100652.13;5037174;28;19956;-78
2023/03/22 05:52:26;;;;;;;;;;;;;;;9.11;100.00;100656.09;5015576;28;20051;-77
2023/03/22 05:54:51;;;;;;;;;;;;;;;9.03;100.00;100650.47;5028990;28;20023;-76
2023/03/22 05:57:17;;;;;;;;;;;;;;;9.12;100.00;100641.75;5014348;28;19921;-76
2023/03/22 05:59:42;;;;;;;;;;;;;;;9.20;100.00;100645.69;5014004;28;19920;-77
2023/03/22 06:02:07;;;;;;;;;;;;;;;8.99;100.00;100649.00;5029461;28;19951;-76
2023/03/22 06:04:33;;;;;;;;;;;;;;;9.06;100.00;100644.88;5033789;28;19932;-77
2023/03/22 06:06:58;;;;;;;;;;;;;;;8.89;100.00;100630.06;5030914;28;20167;-78
2023/03/22 06:09:23;;;;;;;;;;;;;;;8.96;100.00;100644.72;5029017;28;19921;-77
2023/03/22 06:11:48;;;;;;;;;;;;;;;8.84;100.00;100659.03;5027191;28;19927;-77
2023/03/22 06:14:13;;;;;;;;;;;;;;;8.93;100.00;100652.13;5001369;28;19916;-76
2023/03/22 06:16:39;;;;;;;;;;;;;;;8.90;100.00;100652.34;5037102;28;19932;-78
2023/03/22 06:19:05;;;;;;;;;;;;;;;8.87;100.00;100628.47;5020087;28;20035;-75
2023/03/22 06:21:30;;;;;;;;;;;;;;;8.98;100.00;100648.13;5017392;28;19921;-77
2023/03/22 06:23:55;;;;;;;;;;;;;;;8.76;100.00;100594.47;5036256;28;19924;-77
2023/03/22 06:26:20;;;;;;;;;;;;;;;9.05;100.00;100639.66;5022862;28;19927;-79
2023/03/22 06:28:45;;;;;;;;;;;;;;;9.32;100.00;100639.38;5017990;28;19920;-77
2023/03/22 06:31:11;;;;;;;;;;;;;;;9.34;100.00;100641.97;5034602;28;19925;-75
2023/03/22 06:33:36;;;;;;;;;;;;;;;9.15;100.00;100638.84;5038712;28;19943;-78
2023/03/22 06:36:01;;;;;;;;;;;;;;;9.33;100.00;100632.22;5003335;28;19924;-76
2023/03/22 06:38:27;;;;;;;;;;;;;;;9.38;100.00;100622.00;5032914;28;19917;-79
2023/03/22 06:40:52;;;;;;;;;;;;;;;9.39;100.00;100629.91;5033212;28;19943;-75
2023/03/22 06:43:17;;;;;;;;;;;;;;;9.47;100.00;100632.00;5034474;28;19928;-76
2023/03/22 06:45:44;;;;;;;;;;;;;;;9.50;100.00;100639.81;5020184;28;19990;-78
2023/03/22 06:48:09;;;;;;;;;;;;;;;9.40;100.00;100636.13;5036964;28;20235;-78
2023/03/22 06:50:37;;;;;;;;;;;;;;;9.38;100.00;100646.13;5036087;28;19983;-77
2023/03/22 06:53:03;;;;;;;;;;;;;;;9.62;100.00;100646.06;5035729;28;20019;-77
2023/03/22 06:55:32;;;;;;;;;;;;;;;9.59;100.00;100639.13;5032136;28;20461;-76
2023/03/22 06:57:57;;;;;;;;;;;;;;;9.62;100.00;100640.69;5000811;28;20440;-77
2023/03/22 07:00:22;;;;;;;;;;;;;;;9.69;100.00;100647.28;5034054;28;19920;-78
2023/03/22 07:02:47;;;;;;;;;;;;;;;9.63;100.00;100641.56;5031906;28;20438;-78
2023/03/22 07:05:12;;;;;;;;;;;;;;;9.69;100.00;100641.94;5032511;28;20367;-76
2023/03/22 07:07:38;;;;;;;;;;;;;;;9.85;100.00;100646.09;5036135;28;20323;-78
2023/03/22 07:10:03;;;;;;;;;;;;;;;9.82;100.00;100643.66;5008289;28;20343;-80
2023/03/22 07:12:28;;;;;;;;;;;;;;;10.12;100.00;100656.50;5035278;28;19925;-78
2023/03/22 07:14:53;;;;;;;;;;;;;;;10.16;100.00;100638.31;5034837;28;20341;-78
2023/03/22 07:17:19;;;;;;;;;;;;;;;10.01;100.00;100643.94;5033294;28;20383;-77
2023/03/22 07:19:44;;;;;;;;;;;;;;;10.08;100.00;100633.56;5012217;28;20378;-77
2023/03/22 07:22:09;;;;;;;;;;;;;;;10.13;100.00;100654.66;5027534;28;20022;-75
2023/03/22 07:24:34;;;;;;;;;;;;;;;10.13;100.00;100639.44;5031843;28;20378;-77
2023/03/22 07:27:00;;;;;;;;;;;;;;;10.11;100.00;100640.50;5016897;28;20394;-79
2023/03/22 07:29:25;;;;;;;;;;;;;;;10.15;100.00;100632.13;5028540;28;20478;-78
2023/03/22 07:31:50;;;;;;;;;;;;;;;10.01;100.00;100640.38;5019460;28;19921;-78
2023/03/22 07:34:15;;;;;;;;;;;;;;;10.11;100.00;100648.56;5013764;28;19922;-78
2023/03/22 07:36:41;;;;;;;;;;;;;;;9.87;100.00;100649.50;5013028;28;19924;-80
2023/03/22 07:39:06;;;;;;;;;;;;;;;9.88;100.00;100657.44;5030063;28;19990;-78
2023/03/22 07:41:31;;;;;;;;;;;;;;;10.01;100.00;100646.63;5028341;28;19963;-77
2023/03/22 07:43:56;;;;;;;;;;;;;;;9.94;100.00;100652.56;5027970;28;20008;-79
2023/03/22 07:46:22;;;;;;;;;;;;;;;9.94;100.00;100653.44;5036025;28;20226;-78
2023/03/22 07:48:47;;;;;;;;;;;;;;;10.21;100.00;100628.91;5034439;28;19959;-78
2023/03/22 07:51:12;;;;;;;;;;;;;;;10.22;100.00;100664.66;5030525;28;20046;-76
2023/03/22 07:53:37;;;;;;;;;;;;;;;10.14;100.00;100653.69;5017884;28;19925;-77
2023/03/22 07:56:03;;;;;;;;;;;;;;;10.23;100.00;100657.47;5033777;28;20246;-77
2023/03/22 07:58:28;;;;;;;;;;;;;;;10.16;100.00;100641.88;5030070;28;20138;-76
2023/03/22 08:00:53;;;;;;;;;;;;;;;10.16;100.00;100665.16;5034608;28;19956;-77
2023/03/22 08:03:20;;;;;;;;;;;;;;;10.23;100.00;100652.97;5032056;28;19972;-77
2023/03/22 08:05:47;;;;;;;;;;;;;;;10.35;100.00;100659.19;5014797;28;19980;-77
2023/03/22 08:08:12;;;;;;;;;;;;;;;10.24;100.00;100661.84;5034294;28;19959;-77
2023/03/22 08:10:37;;;;;;;;;;;;;;;10.27;100.00;100653.56;5017596;28;20039;-76
2023/03/22 08:13:02;;;;;;;;;;;;;;;10.34;100.00;100660.16;5016725;28;20039;-76
2023/03/22 08:15:28;;;;;;;;;;;;;;;10.39;100.00;100652.63;5029854;28;20024;-76
2023/03/22 08:17:57;;;;;;;;;;;;;;;10.39;100.00;100655.31;5033410;28;19920;-76
2023/03/22 08:20:26;;;;;;;;;;;;;;;10.40;100.00;100648.09;5032040;28;19921;-77
2023/03/22 08:22:51;;;;;;;;;;;;;;;10.33;100.00;100650.41;5034219;28;19924;-77
2023/03/22 08:25:16;;;;;;;;;;;;;;;10.45;100.00;100645.91;5034219;28;19932;-78
2023/03/22 08:27:41;;;;;;;;;;;;;;;10.61;100.00;100653.56;5014976;28;19955;-77
2023/03/22 08:30:07;;;;;;;;;;;;;;;10.56;100.00;100653.97;4994276;28;19924;-75
2023/03/22 08:32:33;;;;;;;;;;;;;;;10.60;100.00;100657.22;5034394;28;20016;-76
2023/03/22 08:34:58;;;;;;;;;;;;;;;10.75;100.00;100665.88;5033729;28;20045;-78
2023/03/22 08:37:23;;;;;;;;;;;;;;;10.92;100.00;100654.59;5034806;28;19917;-76
2023/03/22 08:39:48;;;;;;;;;;;;;;;10.94;100.00;100666.06;5000416;28;19924;-76
2023/03/22 08:42:14;;;;;;;;;;;;;;;11.01;100.00;100649.44;5031579;28;19972;-77
2023/03/22 08:44:39;;;;;;;;;;;;;;;11.00;100.00;100659.31;5031407;28;19925;-79
2023/03/22 08:47:04;;;;;;;;;;;;;;;10.94;100.00;100644.56;5028992;28;19980;-77
2023/03/22 08:49:30;;;;;;;;;;;;;;;11.09;100.00;100637.09;5012257;28;19928;-76
2023/03/22 08:51:56;;;;;;;;;;;;;;;11.16;100.00;100650.84;5017026;28;20006;-77
2023/03/22 08:54:21;;;;;;;;;;;;;;;11.25;100.00;100636.66;5032488;28;19927;-77
2023/03/22 08:56:47;;;;;;;;;;;;;;;11.26;100.00;100626.75;5016013;28;19920;-78
2023/03/22 08:59:12;;;;;;;;;;;;;;;11.29;100.00;100642.63;5032648;28;19951;-77
2023/03/22 09:01:37;;;;;;;;;;;;;;;11.41;100.00;100616.53;5015284;28;19917;-77
2023/03/22 09:04:03;;;;;;;;;;;;;;;11.33;100.00;100627.94;5027951;28;20364;-76
2023/03/22 09:06:28;;;;;;;;;;;;;;;11.39;100.00;100631.94;5033435;28;20199;-78
2023/03/22 09:08:53;;;;;;;;;;;;;;;11.34;100.00;100640.41;5035774;28;20019;-77
2023/03/22 09:11:19;;;;;;;;;;;;;;;11.42;100.00;100646.97;5017197;28;20003;-76
2023/03/22 09:13:45;;;;;;;;;;;;;;;11.45;100.00;100606.38;5015858;28;19945;-74
2023/03/22 09:16:10;;;;;;;;;;;;;;;11.78;100.00;100628.69;5031629;28;19925;-76
2023/03/22 09:18:36;;;;;;;;;;;;;;;11.52;100.00;100615.66;5014969;28;20016;-79
2023/03/22 09:21:01;;;;;;;;;;;;;;;11.60;100.00;100614.97;5032681;28;19921;-78
2023/03/22 09:23:26;;;;;;;;;;;;;;;11.70;100.00;100621.25;5016613;28;20012;-78
2023/03/22 09:25:51;;;;;;;;;;;;;;;11.77;100.00;100608.97;5009926;28;20592;-77
2023/03/22 09:28:17;;;;;;;;;;;;;;;11.76;100.00;100614.50;5035379;28;19982;-76
2023/03/22 09:30:43;;;;;;;;;;;;;;;11.77;100.00;100611.66;5034444;28;19951;-76
2023/03/22 09:33:09;;;;;;;;;;;;;;;11.73;100.00;100615.59;5020867;28;19925;-76
2023/03/22 09:35:35;;;;;;;;;;;;;;;11.72;100.00;100613.06;5018636;28;20377;-77
2023/03/22 09:38:00;;;;;;;;;;;;;;;11.74;100.00;100609.25;5037308;28;20027;-79
2023/03/22 09:40:26;;;;;;;;;;;;;;;11.89;100.00;100608.91;5019627;28;20073;-78
2023/03/22 09:42:51;;;;;;;;;;;;;;;11.97;100.00;100623.41;5023585;28;20286;-77
2023/03/22 09:45:50;;;;;;;;;;;;;;;11.76;100.00;100604.59;5005734;28;19925;-78
2023/03/22 09:48:17;;;;;;;;;;;;;;;11.60;100.00;100606.91;5013792;28;20048;-75
2023/03/22 09:50:43;;;;;;;;;;;;;;;11.60;100.00;100610.44;5020535;28;19982;-77
2023/03/22 09:53:12;;;;;;;;;;;;;;;11.59;100.00;100613.28;5039180;28;19924;-76
2023/03/22 09:55:56;;;;;;;;;;;;;;;11.74;100.00;100624.53;5003701;28;19928;-78
2023/03/22 09:58:25;;;;;;;;;;;;;;;11.48;100.00;100612.34;5035492;28;20078;-73
2023/03/22 10:01:01;;;;;;;;;;;;;;;11.58;100.00;100623.16;5035731;28;20535;-78
2023/03/22 10:03:44;;;;;;;;;;;;;;;11.61;100.00;100598.69;5032726;28;19925;-77
2023/03/22 10:06:19;;;;;;;;;;;;;;;11.50;100.00;100617.59;5033610;28;20007;-75
2023/03/22 10:08:53;;;;;;;;;;;;;;;11.51;100.00;100601.34;5018607;28;20217;-77
2023/03/22 10:11:31;;;;;;;;;;;;;;;11.55;100.00;100605.47;5020161;28;20423;-75
2023/03/22 10:13:59;;;;;;;;;;;;;;;11.53;100.00;100610.13;5037142;28;19928;-75
2023/03/22 10:16:25;;;;;;;;;;;;;;;11.60;100.00;100596.16;5029990;28;20394;-77
2023/03/22 10:18:51;;;;;;;;;;;;;;;11.57;100.00;100608.00;5037506;28;20342;-77
2023/03/22 10:21:16;;;;;;;;;;;;;;;11.54;100.00;100603.75;5019120;28;20426;-77
2023/03/22 10:23:46;;;;;;;;;;;;;;;11.43;100.00;100603.81;5016406;28;19932;-76
2023/03/22 10:26:31;;;;;;;;;;;;;;;11.47;100.00;100599.88;5018247;28;20229;-76
2023/03/22 10:29:05;;;;;;;;;;;;;;;11.45;100.00;100598.31;5024104;28;19921;-76
2023/03/22 10:31:30;;;;;;;;;;;;;;;11.40;100.00;100598.69;5035975;28;20360;-75
2023/03/22 10:34:06;;;;;;;;;;;;;;;11.27;100.00;100611.50;5023262;28;19923;-77
2023/03/22 10:36:33;;;;;;;;;;;;;;;11.21;100.00;100607.50;5015807;28;20293;-77
2023/03/22 10:39:03;;;;;;;;;;;;;;;11.08;100.00;100613.03;5018392;28;20400;-75
2023/03/22 10:41:29;;;;;;;;;;;;;;;10.94;100.00;100611.50;5018539;28;20711;-77
2023/03/22 10:43:55;;;;;;;;;;;;;;;10.79;100.00;100624.38;5018309;28;20774;-77
2023/03/22 10:46:21;;;;;;;;;;;;;;;10.67;100.00;100628.91;5033919;28;19925;-77
2023/03/22 10:48:50;;;;;;;;;;;;;;;10.54;100.00;100646.97;5000979;28;20359;-78
2023/03/22 10:51:21;;;;;;;;;;;;;;;10.65;100.00;100620.13;5023902;28;19979;-76
2023/03/22 10:53:47;;;;;;;;;;;;;;;10.47;100.00;100634.06;5015263;28;19955;-77
2023/03/22 10:56:14;;;;;;;;;;;;;;;10.35;100.00;100629.66;5016833;28;20008;-77
2023/03/22 10:58:39;;;;;;;;;;;;;;;10.31;100.00;100630.88;5015020;28;19952;-78
2023/03/22 11:01:09;;;;;;;;;;;;;;;10.32;100.00;100630.78;5016938;28;20003;-76
2023/03/22 11:03:38;;;;;;;;;;;;;;;10.43;100.00;100658.59;5037945;28;20390;-79
2023/03/22 11:06:17;;;;;;;;;;;;;;;10.35;100.00;100622.44;5035422;28;19923;-78
2023/03/22 11:08:49;;;;;;;;;;;;;;;10.35;100.00;100629.66;5033151;28;19962;-79
2023/03/22 11:11:15;;;;;;;;;;;;;;;10.50;100.00;100632.97;5018069;28;19927;-77
2023/03/22 11:13:40;;;;;;;;;;;;;;;10.46;100.00;100643.09;5036941;28;19921;-77
2023/03/22 11:16:06;;;;;;;;;;;;;;;10.52;100.00;100638.19;5037587;28;19921;-78
2023/03/22 11:18:32;;;;;;;;;;;;;;;10.46;100.00;100635.03;5019321;28;19966;-76
2023/03/22 11:21:04;;;;;;;;;;;;;;;10.44;100.00;100620.03;5015958;28;20379;-77
2023/03/22 11:23:32;;;;;;;;;;;;;;;10.27;100.00;100645.50;5019563;28;20386;-77
2023/03/22 11:25:59;;;;;;;;;;;;;;;10.25;100.00;100637.59;5033368;28;19920;-77
2023/03/22 11:28:31;;;;;;;;;;;;;;;10.28;100.00;100626.63;5017726;28;20368;-77
2023/03/22 11:31:04;;;;;;;;;;;;;;;10.19;100.00;100633.59;5009211;28;19921;-78
2023/03/22 11:33:29;;;;;;;;;;;;;;;10.33;100.00;100624.41;5020721;28;19920;-76
2023/03/22 11:35:56;;;;;;;;;;;;;;;10.39;100.00;100631.16;5028036;28;19920;-77
2023/03/22 11:38:44;;;;;;;;;;;;;;;10.47;100.00;100633.22;5009268;28;19917;-80
2023/03/22 11:41:19;;;;;;;;;;;;;;;10.54;100.00;100630.88;5031783;28;19968;-77
2023/03/22 11:43:49;;;;;;;;;;;;;;;10.71;100.00;100632.19;5004535;28;19924;-80
2023/03/22 11:46:15;;;;;;;;;;;;;;;10.74;100.00;100642.69;5013463;28;19924;-79
2023/03/22 11:48:41;;;;;;;;;;;;;;;10.82;100.00;100626.81;5007868;28;19927;-78
2023/03/22 11:51:10;;;;;;;;;;;;;;;11.06;100.00;100621.22;5008800;28;19921;-77
2023/03/22 11:53:39;;;;;;;;;;;;;;;11.09;100.00;100629.03;5027438;28;19924;-77
2023/03/22 11:56:06;;;;;;;;;;;;;;;11.09;100.00;100620.13;5023274;28;19999;-79
2023/03/22 11:58:37;;;;;;;;;;;;;;;10.86;100.00;100630.09;5019424;28;19925;-77
2023/03/22 12:01:03;;;;;;;;;;;;;;;10.97;100.00;100619.31;5027735;28;19946;-78
2023/03/22 12:03:29;;;;;;;;;;;;;;;10.98;100.00;100652.38;5022967;28;20294;-77
2023/03/22 12:05:55;;;;;;;;;;;;;;;10.88;100.00;100618.22;5023354;28;19925;-79
2023/03/22 12:08:29;;;;;;;;;;;;;;;10.91;100.00;100617.97;5025788;28;19932;-79
2023/03/22 12:11:01;;;;;;;;;;;;;;;11.03;100.00;100628.69;5007469;28;20282;-76
2023/03/22 12:13:47;;;;;;;;;;;;;;;10.88;100.00;100595.91;5011236;28;19975;-78
2023/03/22 12:16:13;;;;;;;;;;;;;;;11.03;100.00;100583.84;4983003;28;19924;-79
2023/03/22 12:18:40;;;;;;;;;;;;;;;11.15;100.00;100610.69;5029032;28;19925;-77
2023/03/22 12:21:07;;;;;;;;;;;;;;;11.04;100.00;100592.78;5010336;28;19920;-78
2023/03/22 12:23:34;;;;;;;;;;;;;;;11.12;100.00;100570.63;5009026;28;20130;-77
2023/03/22 12:26:03;;;;;;;;;;;;;;;11.08;100.00;100594.25;5031491;28;19927;-79
2023/03/22 12:28:32;;;;;;;;;;;;;;;11.02;100.00;100624.28;5010118;28;19966;-76
2023/03/22 12:30:57;;;;;;;;;;;;;;;11.05;100.00;100608.75;4991031;28;19952;-78
2023/03/22 12:33:30;;;;;;;;;;;;;;;11.10;100.00;100603.03;4994836;28;20020;-78